sensor_id;sensor_type;location;lat;lon;timestamp;pressure;altitude;pressure_sealevel;temperature;humidity
76794;BME280;65745;50.278;18.192;2023-05-07T00:01:46;99912.70;;;9.91;76.54
76794;BME280;65745;50.278;18.192;2023-05-07T00:04:18;99913.71;;;9.90;77.15
76794;BME280;65745;50.278;18.192;2023-05-07T00:06:51;99916.28;;;9.89;77.41
76794;BME280;65745;50.278;18.192;2023-05-07T00:09:23;99920.23;;;9.89;77.18
76794;BME280;65745;50.278;18.192;2023-05-07T00:11:56;99921.16;;;9.92;77.31
76794;BME280;65745;50.278;18.192;2023-05-07T00:14:28;99921.75;;;9.95;76.96
76794;BME280;65745;50.278;18.192;2023-05-07T00:17:00;99923.32;;;9.96;76.96
76794;BME280;65745;50.278;18.192;2023-05-07T00:19:32;99923.33;;;9.89;77.98
76794;BME280;65745;50.278;18.192;2023-05-07T00:22:04;99924.91;;;9.83;78.36
76794;BME280;65745;50.278;18.192;2023-05-07T00:24:36;99927.38;;;9.86;77.45
76794;BME280;65745;50.278;18.192;2023-05-07T00:27:08;99928.48;;;9.88;77.50
76794;BME280;65745;50.278;18.192;2023-05-07T00:29:40;99929.78;;;9.93;77.83
76794;BME280;65745;50.278;18.192;2023-05-07T00:32:13;99930.88;;;9.95;78.15
76794;BME280;65745;50.278;18.192;2023-05-07T00:34:45;99929.98;;;9.94;78.27
76794;BME280;65745;50.278;18.192;2023-05-07T00:37:17;99932.54;;;9.93;78.55
76794;BME280;65745;50.278;18.192;2023-05-07T00:39:49;99934.71;;;9.90;78.40
76794;BME280;65745;50.278;18.192;2023-05-07T00:42:22;99934.26;;;9.86;77.92
76794;BME280;65745;50.278;18.192;2023-05-07T00:44:54;99933.52;;;9.83;77.49
76794;BME280;65745;50.278;18.192;2023-05-07T00:47:26;99933.89;;;9.85;77.46
76794;BME280;65745;50.278;18.192;2023-05-07T00:49:59;99927.33;;;9.83;77.71
76794;BME280;65745;50.278;18.192;2023-05-07T00:52:31;99933.14;;;9.82;77.34
76794;BME280;65745;50.278;18.192;2023-05-07T00:55:06;99935.64;;;9.78;77.68
76794;BME280;65745;50.278;18.192;2023-05-07T00:57:41;99940.83;;;9.79;77.83
76794;BME280;65745;50.278;18.192;2023-05-07T01:00:14;99940.31;;;9.79;77.72
76794;BME280;65745;50.278;18.192;2023-05-07T01:02:46;99939.02;;;9.83;78.14
76794;BME280;65745;50.278;18.192;2023-05-07T01:05:20;99942.81;;;9.84;78.21
76794;BME280;65745;50.278;18.192;2023-05-07T01:07:54;99942.48;;;9.85;77.61
76794;BME280;65745;50.278;18.192;2023-05-07T01:10:27;99943.11;;;9.81;77.52
76794;BME280;65745;50.278;18.192;2023-05-07T01:13:01;99942.01;;;9.77;77.83
76794;BME280;65745;50.278;18.192;2023-05-07T01:15:34;99943.42;;;9.72;78.35
76794;BME280;65745;50.278;18.192;2023-05-07T01:18:07;99946.98;;;9.70;77.82
76794;BME280;65745;50.278;18.192;2023-05-07T01:20:39;99946.52;;;9.66;77.99
76794;BME280;65745;50.278;18.192;2023-05-07T01:23:12;99950.10;;;9.65;77.93
76794;BME280;65745;50.278;18.192;2023-05-07T01:25:44;99943.88;;;9.64;78.18
76794;BME280;65745;50.278;18.192;2023-05-07T01:28:22;99945.45;;;9.64;78.14
76794;BME280;65745;50.278;18.192;2023-05-07T01:30:57;99952.77;;;9.67;78.32
76794;BME280;65745;50.278;18.192;2023-05-07T01:33:34;99952.17;;;9.72;78.65
76794;BME280;65745;50.278;18.192;2023-05-07T01:36:08;99952.12;;;9.76;78.46
76794;BME280;65745;50.278;18.192;2023-05-07T01:38:41;99950.19;;;9.75;79.80
76794;BME280;65745;50.278;18.192;2023-05-07T01:41:14;99950.00;;;9.74;79.03
76794;BME280;65745;50.278;18.192;2023-05-07T01:43:47;99950.95;;;9.78;79.15
76794;BME280;65745;50.278;18.192;2023-05-07T01:46:19;99948.19;;;9.77;79.31
76794;BME280;65745;50.278;18.192;2023-05-07T01:48:52;99945.29;;;9.79;79.24
76794;BME280;65745;50.278;18.192;2023-05-07T01:51:24;99947.27;;;9.82;78.38
76794;BME280;65745;50.278;18.192;2023-05-07T01:53:57;99950.57;;;9.85;78.36
76794;BME280;65745;50.278;18.192;2023-05-07T01:56:29;99950.92;;;9.84;78.23
76794;BME280;65745;50.278;18.192;2023-05-07T01:59:02;99950.77;;;9.86;78.72
76794;BME280;65745;50.278;18.192;2023-05-07T02:01:34;99957.83;;;9.86;78.77
76794;BME280;65745;50.278;18.192;2023-05-07T02:04:07;99956.58;;;9.91;78.40
76794;BME280;65745;50.278;18.192;2023-05-07T02:06:39;99958.45;;;9.90;78.04
76794;BME280;65745;50.278;18.192;2023-05-07T02:09:15;99957.55;;;9.88;78.31
76794;BME280;65745;50.278;18.192;2023-05-07T02:11:49;99959.26;;;9.87;78.10
76794;BME280;65745;50.278;18.192;2023-05-07T02:14:22;99957.92;;;9.82;77.90
76794;BME280;65745;50.278;18.192;2023-05-07T02:16:54;99956.86;;;9.81;77.89
76794;BME280;65745;50.278;18.192;2023-05-07T02:19:27;99954.63;;;9.81;78.23
76794;BME280;65745;50.278;18.192;2023-05-07T02:21:59;99954.52;;;9.83;78.30
76794;BME280;65745;50.278;18.192;2023-05-07T02:24:33;99954.45;;;9.88;78.02
76794;BME280;65745;50.278;18.192;2023-05-07T02:27:06;99950.59;;;9.92;77.79
76794;BME280;65745;50.278;18.192;2023-05-07T02:29:38;99950.73;;;9.98;77.72
76794;BME280;65745;50.278;18.192;2023-05-07T02:32:10;99950.09;;;10.00;77.57
76794;BME280;65745;50.278;18.192;2023-05-07T02:34:43;99952.67;;;10.01;77.60
76794;BME280;65745;50.278;18.192;2023-05-07T02:37:15;99954.96;;;10.02;77.42
76794;BME280;65745;50.278;18.192;2023-05-07T02:39:48;99959.98;;;9.96;77.41
76794;BME280;65745;50.278;18.192;2023-05-07T02:42:20;99965.36;;;9.92;77.44
76794;BME280;65745;50.278;18.192;2023-05-07T02:44:52;99966.64;;;9.87;77.48
76794;BME280;65745;50.278;18.192;2023-05-07T02:47:24;99970.40;;;9.86;77.19
76794;BME280;65745;50.278;18.192;2023-05-07T02:49:59;99969.32;;;9.84;77.14
76794;BME280;65745;50.278;18.192;2023-05-07T02:52:32;99975.09;;;9.80;77.43
76794;BME280;65745;50.278;18.192;2023-05-07T02:55:06;99974.33;;;9.77;77.69
76794;BME280;65745;50.278;18.192;2023-05-07T02:57:38;99976.38;;;9.76;77.72
76794;BME280;65745;50.278;18.192;2023-05-07T03:00:16;99972.60;;;9.77;77.51
76794;BME280;65745;50.278;18.192;2023-05-07T03:02:58;99972.26;;;9.77;78.06
76794;BME280;65745;50.278;18.192;2023-05-07T03:05:31;99978.88;;;9.80;77.96
76794;BME280;65745;50.278;18.192;2023-05-07T03:08:03;99977.80;;;9.79;77.85
76794;BME280;65745;50.278;18.192;2023-05-07T03:10:36;99980.26;;;9.81;77.27
76794;BME280;65745;50.278;18.192;2023-05-07T03:13:08;99982.28;;;9.79;77.22
76794;BME280;65745;50.278;18.192;2023-05-07T03:15:40;99979.69;;;9.71;77.33
76794;BME280;65745;50.278;18.192;2023-05-07T03:18:13;99983.91;;;9.68;77.20
76794;BME280;65745;50.278;18.192;2023-05-07T03:20:45;99989.33;;;9.65;77.62
76794;BME280;65745;50.278;18.192;2023-05-07T03:23:20;99988.60;;;9.63;77.90
76794;BME280;65745;50.278;18.192;2023-05-07T03:25:59;99992.74;;;9.64;77.96
76794;BME280;65745;50.278;18.192;2023-05-07T03:28:31;99993.89;;;9.69;78.10
76794;BME280;65745;50.278;18.192;2023-05-07T03:31:05;99999.23;;;9.69;78.15
76794;BME280;65745;50.278;18.192;2023-05-07T03:33:49;99999.23;;;9.68;78.21
76794;BME280;65745;50.278;18.192;2023-05-07T03:36:23;99997.98;;;9.73;78.29
76794;BME280;65745;50.278;18.192;2023-05-07T03:38:55;100000.63;;;9.69;78.05
76794;BME280;65745;50.278;18.192;2023-05-07T03:41:29;100002.87;;;9.70;77.55
76794;BME280;65745;50.278;18.192;2023-05-07T03:44:02;100007.23;;;9.66;77.44
76794;BME280;65745;50.278;18.192;2023-05-07T03:46:34;100008.40;;;9.64;77.43
76794;BME280;65745;50.278;18.192;2023-05-07T03:49:06;100013.88;;;9.63;77.07
76794;BME280;65745;50.278;18.192;2023-05-07T03:51:39;100021.50;;;9.58;77.30
76794;BME280;65745;50.278;18.192;2023-05-07T03:54:11;100019.70;;;9.56;77.18
76794;BME280;65745;50.278;18.192;2023-05-07T03:56:46;100025.37;;;9.56;77.54
76794;BME280;65745;50.278;18.192;2023-05-07T03:59:18;100028.73;;;9.53;77.73
76794;BME280;65745;50.278;18.192;2023-05-07T04:01:51;100034.17;;;9.57;77.75
76794;BME280;65745;50.278;18.192;2023-05-07T04:04:25;100038.52;;;9.58;77.79
76794;BME280;65745;50.278;18.192;2023-05-07T04:06:57;100035.52;;;9.56;77.73
76794;BME280;65745;50.278;18.192;2023-05-07T04:09:30;100038.23;;;9.55;77.55
76794;BME280;65745;50.278;18.192;2023-05-07T04:12:02;100041.55;;;9.57;77.30
76794;BME280;65745;50.278;18.192;2023-05-07T04:14:35;100044.86;;;9.51;77.44
76794;BME280;65745;50.278;18.192;2023-05-07T04:17:07;100049.05;;;9.48;77.46
76794;BME280;65745;50.278;18.192;2023-05-07T04:19:41;100051.58;;;9.46;77.42
76794;BME280;65745;50.278;18.192;2023-05-07T04:22:18;100056.13;;;9.42;77.55
76794;BME280;65745;50.278;18.192;2023-05-07T04:24:50;100057.14;;;9.41;77.65
76794;BME280;65745;50.278;18.192;2023-05-07T04:27:22;100065.67;;;9.39;77.63
76794;BME280;65745;50.278;18.192;2023-05-07T04:29:55;100072.71;;;9.39;77.65
76794;BME280;65745;50.278;18.192;2023-05-07T04:32:29;100077.84;;;9.37;77.95
76794;BME280;65745;50.278;18.192;2023-05-07T04:35:02;100083.19;;;9.32;78.07
76794;BME280;65745;50.278;18.192;2023-05-07T04:37:35;100085.11;;;9.32;78.14
76794;BME280;65745;50.278;18.192;2023-05-07T04:40:09;100089.55;;;9.38;77.88
76794;BME280;65745;50.278;18.192;2023-05-07T04:42:42;100090.55;;;9.37;77.94
76794;BME280;65745;50.278;18.192;2023-05-07T04:45:15;100088.84;;;9.37;77.90
76794;BME280;65745;50.278;18.192;2023-05-07T04:47:48;100091.55;;;9.35;78.04
76794;BME280;65745;50.278;18.192;2023-05-07T04:50:21;100092.87;;;9.34;77.81
76794;BME280;65745;50.278;18.192;2023-05-07T04:52:55;100096.27;;;9.33;77.88
76794;BME280;65745;50.278;18.192;2023-05-07T04:55:28;100097.09;;;9.31;77.46
76794;BME280;65745;50.278;18.192;2023-05-07T04:58:00;100101.39;;;9.25;77.17
76794;BME280;65745;50.278;18.192;2023-05-07T05:00:34;100102.19;;;9.23;77.12
76794;BME280;65745;50.278;18.192;2023-05-07T05:03:07;100100.46;;;9.22;76.74
76794;BME280;65745;50.278;18.192;2023-05-07T05:05:41;100106.63;;;9.22;76.71
76794;BME280;65745;50.278;18.192;2023-05-07T05:08:13;100110.76;;;9.22;76.74
76794;BME280;65745;50.278;18.192;2023-05-07T05:10:45;100116.95;;;9.22;76.78
76794;BME280;65745;50.278;18.192;2023-05-07T05:13:19;100120.66;;;9.20;76.82
76794;BME280;65745;50.278;18.192;2023-05-07T05:15:52;100124.59;;;9.19;76.72
76794;BME280;65745;50.278;18.192;2023-05-07T05:18:25;100128.81;;;9.17;76.73
76794;BME280;65745;50.278;18.192;2023-05-07T05:20:57;100132.34;;;9.20;76.81
76794;BME280;65745;50.278;18.192;2023-05-07T05:23:29;100136.59;;;9.24;76.67
76794;BME280;65745;50.278;18.192;2023-05-07T05:26:02;100140.73;;;9.25;76.65
76794;BME280;65745;50.278;18.192;2023-05-07T05:28:35;100141.75;;;9.24;76.77
76794;BME280;65745;50.278;18.192;2023-05-07T05:31:07;100145.42;;;9.20;76.85
76794;BME280;65745;50.278;18.192;2023-05-07T05:33:39;100146.90;;;9.18;76.94
76794;BME280;65745;50.278;18.192;2023-05-07T05:36:12;100151.85;;;9.17;76.81
76794;BME280;65745;50.278;18.192;2023-05-07T05:38:44;100152.80;;;9.14;76.76
76794;BME280;65745;50.278;18.192;2023-05-07T05:41:17;100157.28;;;9.09;76.78
76794;BME280;65745;50.278;18.192;2023-05-07T05:43:49;100161.93;;;9.04;76.77
76794;BME280;65745;50.278;18.192;2023-05-07T05:46:22;100167.48;;;9.00;76.72
76794;BME280;65745;50.278;18.192;2023-05-07T05:48:54;100167.35;;;8.95;76.85
76794;BME280;65745;50.278;18.192;2023-05-07T05:51:27;100168.92;;;8.96;76.91
76794;BME280;65745;50.278;18.192;2023-05-07T05:53:59;100165.63;;;9.00;77.11
76794;BME280;65745;50.278;18.192;2023-05-07T05:56:31;100165.46;;;9.01;77.36
76794;BME280;65745;50.278;18.192;2023-05-07T05:59:03;100161.05;;;9.03;77.35
76794;BME280;65745;50.278;18.192;2023-05-07T06:01:37;100159.41;;;9.05;77.27
76794;BME280;65745;50.278;18.192;2023-05-07T06:04:10;100162.94;;;9.08;77.14
76794;BME280;65745;50.278;18.192;2023-05-07T06:06:42;100162.80;;;9.09;77.07
76794;BME280;65745;50.278;18.192;2023-05-07T06:09:14;100168.19;;;9.12;76.86
76794;BME280;65745;50.278;18.192;2023-05-07T06:11:47;100170.20;;;9.10;76.68
76794;BME280;65745;50.278;18.192;2023-05-07T06:14:20;100172.10;;;9.05;76.76
76794;BME280;65745;50.278;18.192;2023-05-07T06:16:52;100178.88;;;9.01;76.54
76794;BME280;65745;50.278;18.192;2023-05-07T06:19:24;100173.60;;;8.97;76.53
76794;BME280;65745;50.278;18.192;2023-05-07T06:21:59;100174.71;;;8.94;76.24
76794;BME280;65745;50.278;18.192;2023-05-07T06:24:33;100173.00;;;8.94;76.70
76794;BME280;65745;50.278;18.192;2023-05-07T06:27:07;100174.55;;;8.94;76.82
76794;BME280;65745;50.278;18.192;2023-05-07T06:29:39;100178.41;;;8.98;76.77
76794;BME280;65745;50.278;18.192;2023-05-07T06:32:16;100182.83;;;8.96;76.82
76794;BME280;65745;50.278;18.192;2023-05-07T06:34:49;100187.11;;;8.95;76.90
76794;BME280;65745;50.278;18.192;2023-05-07T06:37:21;100184.73;;;8.96;76.55
76794;BME280;65745;50.278;18.192;2023-05-07T06:40:01;100191.73;;;8.95;76.38
76794;BME280;65745;50.278;18.192;2023-05-07T06:42:33;100196.89;;;8.94;76.32
76794;BME280;65745;50.278;18.192;2023-05-07T06:45:22;100196.73;;;8.95;76.38
76794;BME280;65745;50.278;18.192;2023-05-07T06:47:56;100200.32;;;8.94;76.33
76794;BME280;65745;50.278;18.192;2023-05-07T06:50:28;100199.65;;;8.95;76.28
76794;BME280;65745;50.278;18.192;2023-05-07T06:53:01;100200.38;;;8.97;76.33
76794;BME280;65745;50.278;18.192;2023-05-07T06:55:35;100205.64;;;9.00;76.24
76794;BME280;65745;50.278;18.192;2023-05-07T06:58:09;100212.91;;;9.07;76.40
76794;BME280;65745;50.278;18.192;2023-05-07T07:00:42;100216.63;;;9.11;76.12
76794;BME280;65745;50.278;18.192;2023-05-07T07:03:14;100216.58;;;9.15;76.04
76794;BME280;65745;50.278;18.192;2023-05-07T07:05:47;100219.39;;;9.17;75.89
76794;BME280;65745;50.278;18.192;2023-05-07T07:08:19;100224.06;;;9.18;75.90
76794;BME280;65745;50.278;18.192;2023-05-07T07:10:54;100229.37;;;9.17;75.96
76794;BME280;65745;50.278;18.192;2023-05-07T07:13:27;100228.84;;;9.17;75.92
76794;BME280;65745;50.278;18.192;2023-05-07T07:15:59;100230.68;;;9.21;75.81
76794;BME280;65745;50.278;18.192;2023-05-07T07:18:32;100232.37;;;9.20;75.57
76794;BME280;65745;50.278;18.192;2023-05-07T07:21:04;100236.59;;;9.23;75.50
76794;BME280;65745;50.278;18.192;2023-05-07T07:23:37;100237.77;;;9.28;75.34
76794;BME280;65745;50.278;18.192;2023-05-07T07:26:09;100236.66;;;9.37;75.21
76794;BME280;65745;50.278;18.192;2023-05-07T07:28:45;100239.28;;;9.44;74.99
76794;BME280;65745;50.278;18.192;2023-05-07T07:31:21;100244.02;;;9.53;74.71
76794;BME280;65745;50.278;18.192;2023-05-07T07:33:54;100248.86;;;9.59;74.84
76794;BME280;65745;50.278;18.192;2023-05-07T07:36:26;100253.52;;;9.71;74.55
76794;BME280;65745;50.278;18.192;2023-05-07T07:39:16;100254.08;;;9.85;74.69
76794;BME280;65745;50.278;18.192;2023-05-07T07:41:50;100255.95;;;9.97;74.47
76794;BME280;65745;50.278;18.192;2023-05-07T07:44:23;100254.00;;;10.07;74.29
76794;BME280;65745;50.278;18.192;2023-05-07T07:46:59;100253.73;;;10.15;73.52
76794;BME280;65745;50.278;18.192;2023-05-07T07:49:32;100257.13;;;10.14;73.16
76794;BME280;65745;50.278;18.192;2023-05-07T07:52:07;100257.16;;;10.14;72.84
76794;BME280;65745;50.278;18.192;2023-05-07T07:54:39;100261.64;;;10.15;72.51
76794;BME280;65745;50.278;18.192;2023-05-07T07:57:13;100261.23;;;10.18;72.39
76794;BME280;65745;50.278;18.192;2023-05-07T07:59:48;100267.59;;;10.30;72.44
76794;BME280;65745;50.278;18.192;2023-05-07T08:02:21;100269.70;;;10.39;72.16
76794;BME280;65745;50.278;18.192;2023-05-07T08:04:54;100271.35;;;10.43;72.12
76794;BME280;65745;50.278;18.192;2023-05-07T08:07:26;100273.85;;;10.45;71.95
76794;BME280;65745;50.278;18.192;2023-05-07T08:09:59;100275.63;;;10.54;72.43
76794;BME280;65745;50.278;18.192;2023-05-07T08:12:32;100276.34;;;10.62;72.13
76794;BME280;65745;50.278;18.192;2023-05-07T08:15:06;100279.25;;;10.68;71.61
76794;BME280;65745;50.278;18.192;2023-05-07T08:17:39;100286.81;;;10.60;71.15
76794;BME280;65745;50.278;18.192;2023-05-07T08:20:12;100288.70;;;10.54;71.13
76794;BME280;65745;50.278;18.192;2023-05-07T08:22:45;100289.13;;;10.57;70.76
76794;BME280;65745;50.278;18.192;2023-05-07T08:25:18;100286.53;;;10.63;70.80
76794;BME280;65745;50.278;18.192;2023-05-07T08:27:51;100288.48;;;10.72;70.68
76794;BME280;65745;50.278;18.192;2023-05-07T08:30:23;100285.67;;;10.77;70.04
76794;BME280;65745;50.278;18.192;2023-05-07T08:32:56;100290.88;;;10.71;69.06
76794;BME280;65745;50.278;18.192;2023-05-07T08:35:28;100297.38;;;10.70;69.56
76794;BME280;65745;50.278;18.192;2023-05-07T08:38:01;100292.48;;;10.74;69.55
76794;BME280;65745;50.278;18.192;2023-05-07T08:40:38;100301.41;;;10.79;69.74
76794;BME280;65745;50.278;18.192;2023-05-07T08:43:16;100303.81;;;10.79;69.41
76794;BME280;65745;50.278;18.192;2023-05-07T08:45:51;100306.62;;;10.81;69.35
76794;BME280;65745;50.278;18.192;2023-05-07T08:48:29;100312.14;;;10.87;69.28
76794;BME280;65745;50.278;18.192;2023-05-07T08:51:08;100308.83;;;10.92;69.06
76794;BME280;65745;50.278;18.192;2023-05-07T08:53:41;100314.52;;;10.92;68.74
76794;BME280;65745;50.278;18.192;2023-05-07T08:56:17;100309.10;;;11.03;68.45
76794;BME280;65745;50.278;18.192;2023-05-07T08:58:53;100311.23;;;11.21;68.26
76794;BME280;65745;50.278;18.192;2023-05-07T09:01:27;100309.24;;;11.31;68.20
76794;BME280;65745;50.278;18.192;2023-05-07T09:04:00;100311.52;;;11.39;67.81
76794;BME280;65745;50.278;18.192;2023-05-07T09:06:33;100315.22;;;11.36;67.67
76794;BME280;65745;50.278;18.192;2023-05-07T09:09:05;100316.14;;;11.30;67.71
76794;BME280;65745;50.278;18.192;2023-05-07T09:11:37;100320.68;;;11.26;67.79
76794;BME280;65745;50.278;18.192;2023-05-07T09:14:10;100321.06;;;11.20;67.00
76794;BME280;65745;50.278;18.192;2023-05-07T09:16:45;100316.98;;;11.16;67.02
76794;BME280;65745;50.278;18.192;2023-05-07T09:19:23;100323.52;;;11.08;67.29
76794;BME280;65745;50.278;18.192;2023-05-07T09:22:01;100329.95;;;11.03;67.59
76794;BME280;65745;50.278;18.192;2023-05-07T09:24:40;100331.20;;;10.98;67.58
76794;BME280;65745;50.278;18.192;2023-05-07T09:27:19;100335.25;;;10.95;66.99
76794;BME280;65745;50.278;18.192;2023-05-07T09:29:52;100344.64;;;10.92;66.75
76794;BME280;65745;50.278;18.192;2023-05-07T09:32:24;100346.23;;;10.93;66.36
76794;BME280;65745;50.278;18.192;2023-05-07T09:34:58;100346.52;;;10.91;66.52
76794;BME280;65745;50.278;18.192;2023-05-07T09:37:32;100348.15;;;10.87;66.38
76794;BME280;65745;50.278;18.192;2023-05-07T09:40:06;100343.73;;;10.83;66.42
76794;BME280;65745;50.278;18.192;2023-05-07T09:42:39;100341.14;;;10.89;66.15
76794;BME280;65745;50.278;18.192;2023-05-07T09:45:12;100337.13;;;11.01;66.17
76794;BME280;65745;50.278;18.192;2023-05-07T09:47:46;100336.45;;;11.15;66.16
76794;BME280;65745;50.278;18.192;2023-05-07T09:50:23;100340.09;;;11.16;65.48
76794;BME280;65745;50.278;18.192;2023-05-07T09:52:59;100344.73;;;11.09;65.58
76794;BME280;65745;50.278;18.192;2023-05-07T09:55:32;100349.88;;;11.01;65.96
76794;BME280;65745;50.278;18.192;2023-05-07T09:58:05;100355.20;;;10.94;65.99
76794;BME280;65745;50.278;18.192;2023-05-07T10:00:39;100361.45;;;10.89;66.24
76794;BME280;65745;50.278;18.192;2023-05-07T10:03:13;100362.55;;;10.91;66.29
76794;BME280;65745;50.278;18.192;2023-05-07T10:05:56;100366.42;;;10.88;66.46
76794;BME280;65745;50.278;18.192;2023-05-07T10:08:32;100369.96;;;10.85;66.61
76794;BME280;65745;50.278;18.192;2023-05-07T10:11:05;100374.87;;;10.87;66.66
76794;BME280;65745;50.278;18.192;2023-05-07T10:13:38;100376.95;;;10.88;66.28
76794;BME280;65745;50.278;18.192;2023-05-07T10:16:11;100378.29;;;10.86;66.11
76794;BME280;65745;50.278;18.192;2023-05-07T10:18:48;100385.29;;;10.78;66.23
76794;BME280;65745;50.278;18.192;2023-05-07T10:21:24;100383.41;;;10.72;66.52
76794;BME280;65745;50.278;18.192;2023-05-07T10:24:16;100385.88;;;10.68;66.51
76794;BME280;65745;50.278;18.192;2023-05-07T10:26:53;100386.73;;;10.67;66.46
76794;BME280;65745;50.278;18.192;2023-05-07T10:29:36;100386.39;;;10.67;66.06
76794;BME280;65745;50.278;18.192;2023-05-07T10:32:24;100386.41;;;10.75;66.27
76794;BME280;65745;50.278;18.192;2023-05-07T10:35:06;100386.75;;;10.87;66.38
76794;BME280;65745;50.278;18.192;2023-05-07T10:37:42;100387.20;;;10.98;66.15
76794;BME280;65745;50.278;18.192;2023-05-07T10:40:16;100393.44;;;10.99;65.63
76794;BME280;65745;50.278;18.192;2023-05-07T10:43:02;100391.18;;;10.98;65.98
76794;BME280;65745;50.278;18.192;2023-05-07T10:46:13;100392.86;;;10.96;65.83
76794;BME280;65745;50.278;18.192;2023-05-07T10:49:11;100396.38;;;10.93;65.81
76794;BME280;65745;50.278;18.192;2023-05-07T10:52:13;100397.60;;;10.87;65.93
76794;BME280;65745;50.278;18.192;2023-05-07T10:55:20;100403.07;;;10.85;66.00
76794;BME280;65745;50.278;18.192;2023-05-07T10:58:26;100402.79;;;10.81;66.12
76794;BME280;65745;50.278;18.192;2023-05-07T11:01:52;100402.73;;;10.79;65.87
76794;BME280;65745;50.278;18.192;2023-05-07T11:04:40;100400.27;;;10.71;65.91
76794;BME280;65745;50.278;18.192;2023-05-07T11:07:29;100402.66;;;10.70;66.01
76794;BME280;65745;50.278;18.192;2023-05-07T11:10:09;100400.10;;;10.71;65.68
76794;BME280;65745;50.278;18.192;2023-05-07T11:12:54;100403.13;;;10.75;65.56
76794;BME280;65745;50.278;18.192;2023-05-07T11:15:41;100405.57;;;10.88;65.56
76794;BME280;65745;50.278;18.192;2023-05-07T11:18:21;100408.02;;;11.02;65.30
76794;BME280;65745;50.278;18.192;2023-05-07T11:20:58;100408.45;;;11.13;65.35
76794;BME280;65745;50.278;18.192;2023-05-07T11:24:01;100411.13;;;11.23;65.25
76794;BME280;65745;50.278;18.192;2023-05-07T11:26:54;100412.07;;;11.33;65.09
76794;BME280;65745;50.278;18.192;2023-05-07T11:29:28;100415.86;;;11.38;65.00
76794;BME280;65745;50.278;18.192;2023-05-07T11:32:07;100419.32;;;11.40;64.82
76794;BME280;65745;50.278;18.192;2023-05-07T11:34:48;100421.55;;;11.32;64.63
76794;BME280;65745;50.278;18.192;2023-05-07T11:37:25;100423.41;;;11.24;65.04
76794;BME280;65745;50.278;18.192;2023-05-07T11:40:06;100418.16;;;11.21;64.82
76794;BME280;65745;50.278;18.192;2023-05-07T11:42:40;100419.61;;;11.17;64.82
76794;BME280;65745;50.278;18.192;2023-05-07T11:45:24;100422.97;;;11.14;64.95
76794;BME280;65745;50.278;18.192;2023-05-07T11:47:57;100424.35;;;11.14;64.51
76794;BME280;65745;50.278;18.192;2023-05-07T11:50:29;100423.31;;;11.21;64.57
76794;BME280;65745;50.278;18.192;2023-05-07T11:53:06;100427.84;;;11.35;64.50
76794;BME280;65745;50.278;18.192;2023-05-07T11:55:39;100421.78;;;11.63;64.86
76794;BME280;65745;50.278;18.192;2023-05-07T11:58:23;100418.19;;;11.85;64.22
76794;BME280;65745;50.278;18.192;2023-05-07T12:00:56;100423.48;;;11.90;63.83
76794;BME280;65745;50.278;18.192;2023-05-07T12:03:29;100424.85;;;11.97;64.10
76794;BME280;65745;50.278;18.192;2023-05-07T12:06:07;100426.67;;;12.01;63.93
76794;BME280;65745;50.278;18.192;2023-05-07T12:08:40;100431.36;;;11.87;63.56
76794;BME280;65745;50.278;18.192;2023-05-07T12:11:22;100438.70;;;11.63;64.09
76794;BME280;65745;50.278;18.192;2023-05-07T12:13:55;100440.21;;;11.48;63.98
76794;BME280;65745;50.278;18.192;2023-05-07T12:16:30;100443.23;;;11.31;63.43
76794;BME280;65745;50.278;18.192;2023-05-07T12:19:03;100444.67;;;11.20;64.02
76794;BME280;65745;50.278;18.192;2023-05-07T12:21:35;100444.70;;;11.07;63.75
76794;BME280;65745;50.278;18.192;2023-05-07T12:24:09;100445.65;;;10.98;64.24
76794;BME280;65745;50.278;18.192;2023-05-07T12:26:42;100449.65;;;10.99;64.30
76794;BME280;65745;50.278;18.192;2023-05-07T12:29:15;100450.38;;;11.00;64.19
76794;BME280;65745;50.278;18.192;2023-05-07T12:31:47;100455.34;;;11.00;64.28
76794;BME280;65745;50.278;18.192;2023-05-07T12:34:21;100461.55;;;10.93;64.02
76794;BME280;65745;50.278;18.192;2023-05-07T12:36:54;100462.48;;;10.84;64.22
76794;BME280;65745;50.278;18.192;2023-05-07T12:39:27;100460.66;;;10.80;64.70
76794;BME280;65745;50.278;18.192;2023-05-07T12:42:00;100461.47;;;10.78;64.63
76794;BME280;65745;50.278;18.192;2023-05-07T12:44:33;100459.86;;;10.76;64.76
76794;BME280;65745;50.278;18.192;2023-05-07T12:47:06;100461.10;;;10.77;64.47
76794;BME280;65745;50.278;18.192;2023-05-07T12:49:39;100456.11;;;10.78;64.45
76794;BME280;65745;50.278;18.192;2023-05-07T12:52:14;100460.54;;;10.82;64.44
76794;BME280;65745;50.278;18.192;2023-05-07T12:54:46;100463.69;;;10.90;64.64
76794;BME280;65745;50.278;18.192;2023-05-07T12:57:20;100461.02;;;10.99;64.40
76794;BME280;65745;50.278;18.192;2023-05-07T12:59:59;100459.02;;;11.08;64.10
76794;BME280;65745;50.278;18.192;2023-05-07T13:02:37;100461.38;;;11.12;63.94
76794;BME280;65745;50.278;18.192;2023-05-07T13:05:10;100464.73;;;11.09;64.11
76794;BME280;65745;50.278;18.192;2023-05-07T13:07:54;100470.80;;;11.04;64.33
76794;BME280;65745;50.278;18.192;2023-05-07T13:10:26;100472.58;;;11.00;63.89
76794;BME280;65745;50.278;18.192;2023-05-07T13:12:59;100477.04;;;10.99;64.07
76794;BME280;65745;50.278;18.192;2023-05-07T13:15:32;100474.45;;;10.92;63.96
76794;BME280;65745;50.278;18.192;2023-05-07T13:18:04;100477.23;;;10.87;64.41
76794;BME280;65745;50.278;18.192;2023-05-07T13:20:37;100479.13;;;10.87;64.30
76794;BME280;65745;50.278;18.192;2023-05-07T13:23:09;100481.89;;;10.87;64.51
76794;BME280;65745;50.278;18.192;2023-05-07T13:25:41;100479.51;;;10.83;64.42
76794;BME280;65745;50.278;18.192;2023-05-07T13:28:14;100478.08;;;10.75;64.85